PWSweather.com
Personal Weather Stations
Station Observations
WODONGA
Wodonga, WodongaAU 3690

WodongaWodongaAU 3690

Lat: -36.121, Lon: 146.87

Elevation: 541

Station Type: Weather Station

http://www.wodongaweather.net

High Low Average
Temperature 85.6°F29.8°F 59.9°F15.5°F 70.0°F21.1°F
Dew Point 59.0°F15.0°F 44.6°F7.0°F 51.8°F11.0°F
Winds 14.1 mph SE22.7 mph SE 1.7 mph 2.7 mph 7.4 mph 11.9 mph
Wind Gusts 19.0 mph30.6 mph 3.1 mph5.0 mph 10.8 mph17.4 mph
Humidity 68% 33% 54%
Pressure 29.99 in1015.60 in 29.88 in1011.90 in -
Precipitation 0.00 in0.00 in - -
Hour Temp Dew Point Humidity Winds Wind Gusts Pressure Precip Precip Rate Daily Precip Total
12:10 AM 65.1°F18.4°C 51.4°F10.8°C 61% 8.5 mph SE13.7 kmh SE 13.6 mph21.9 kmh 29.91 in1012.9 mb 0.00 in0.0 mm 0.00 in/hr0.0 mm/hr 0.00 in0.0 mm
12:15 AM 64.9°F18.3°C 51.6°F10.9°C 62% 7.2 mph ESE11.6 kmh ESE 9.8 mph15.8 kmh 29.91 in1012.9 mb 0.00 in0.0 mm 0.00 in/hr0.0 mm/hr 0.00 in0.0 mm
12:20 AM 64.8°F18.2°C 51.5°F10.8°C 62% 7.1 mph SE11.4 kmh SE 9.2 mph14.8 kmh 29.91 in1012.9 mb 0.00 in0.0 mm 0.00 in/hr0.0 mm/hr 0.00 in0.0 mm
12:25 AM 64.8°F18.2°C 51.5°F10.8°C 62% 7.0 mph SE11.3 kmh SE 9.2 mph14.8 kmh 29.91 in1012.9 mb 0.00 in0.0 mm 0.00 in/hr0.0 mm/hr 0.00 in0.0 mm
12:30 AM 64.6°F18.1°C 51.3°F10.7°C 62% 7.1 mph SE11.4 kmh SE 9.8 mph15.8 kmh 29.91 in1012.9 mb 0.00 in0.0 mm 0.00 in/hr0.0 mm/hr 0.00 in0.0 mm
12:35 AM 64.4°F18.0°C 51.1°F10.6°C 62% 6.7 mph ESE10.8 kmh ESE 9.8 mph15.8 kmh 29.91 in1012.9 mb 0.00 in0.0 mm 0.00 in/hr0.0 mm/hr 0.00 in0.0 mm
12:40 AM 64.6°F18.1°C 51.3°F10.7°C 62% 5.7 mph ESE9.2 kmh ESE 9.2 mph14.8 kmh 29.91 in1012.9 mb 0.00 in0.0 mm 0.00 in/hr0.0 mm/hr 0.00 in0.0 mm
12:45 AM 64.6°F18.1°C 51.3°F10.7°C 62% 5.1 mph SE8.2 kmh SE 9.2 mph14.8 kmh 29.91 in1012.9 mb 0.00 in0.0 mm 0.00 in/hr0.0 mm/hr 0.00 in0.0 mm
12:50 AM 64.6°F18.1°C 51.7°F10.9°C 63% 4.6 mph SE7.4 kmh SE 6.0 mph9.7 kmh 29.91 in1012.9 mb 0.00 in0.0 mm 0.00 in/hr0.0 mm/hr 0.00 in0.0 mm
01:00 AM 64.6°F18.1°C 51.7°F10.9°C 63% 4.1 mph SE6.6 kmh SE 7.6 mph12.2 kmh 29.91 in1012.9 mb 0.00 in0.0 mm 0.00 in/hr0.0 mm/hr 0.00 in0.0 mm
01:05 AM 64.6°F18.1°C 51.7°F10.9°C 63% 4.7 mph ESE7.6 kmh ESE 9.2 mph14.8 kmh 29.91 in1012.9 mb 0.00 in0.0 mm 0.00 in/hr0.0 mm/hr 0.00 in0.0 mm
01:10 AM 64.6°F18.1°C 51.7°F10.9°C 63% 5.1 mph SE8.2 kmh SE 9.2 mph14.8 kmh 29.91 in1012.9 mb 0.00 in0.0 mm 0.00 in/hr0.0 mm/hr 0.00 in0.0 mm
01:15 AM 64.4°F18.0°C 51.5°F10.8°C 63% 4.9 mph SE7.9 kmh SE 9.2 mph14.8 kmh 29.91 in1012.9 mb 0.00 in0.0 mm 0.00 in/hr0.0 mm/hr 0.00 in0.0 mm
01:20 AM 64.2°F17.9°C 51.4°F10.8°C 63% 4.8 mph SE7.7 kmh SE 6.0 mph9.7 kmh 29.91 in1012.9 mb 0.00 in0.0 mm 0.00 in/hr0.0 mm/hr 0.00 in0.0 mm
01:25 AM 64.2°F17.9°C 51.4°F10.8°C 63% 4.7 mph SE7.6 kmh SE 6.0 mph9.7 kmh 29.91 in1012.9 mb 0.00 in0.0 mm 0.00 in/hr0.0 mm/hr 0.00 in0.0 mm
01:30 AM 64.2°F17.9°C 51.4°F10.8°C 63% 4.2 mph SE6.8 kmh SE 5.4 mph8.7 kmh 29.91 in1012.9 mb 0.00 in0.0 mm 0.00 in/hr0.0 mm/hr 0.00 in0.0 mm
01:35 AM 64.0°F17.8°C 51.2°F10.7°C 63% 4.0 mph SE6.4 kmh SE 5.4 mph8.7 kmh 29.91 in1012.9 mb 0.00 in0.0 mm 0.00 in/hr0.0 mm/hr 0.00 in0.0 mm
01:40 AM 63.7°F17.6°C 51.3°F10.7°C 64% 3.8 mph ESE6.1 kmh ESE 5.4 mph8.7 kmh 29.91 in1012.9 mb 0.00 in0.0 mm 0.00 in/hr0.0 mm/hr 0.00 in0.0 mm
01:45 AM 63.7°F17.6°C 51.3°F10.7°C 64% 3.8 mph SE6.1 kmh SE 5.4 mph8.7 kmh 29.91 in1012.9 mb 0.00 in0.0 mm 0.00 in/hr0.0 mm/hr 0.00 in0.0 mm
01:55 AM 63.5°F17.5°C 51.1°F10.6°C 64% 3.2 mph SE5.1 kmh SE 5.4 mph8.7 kmh 29.90 in1012.5 mb 0.00 in0.0 mm 0.00 in/hr0.0 mm/hr 0.00 in0.0 mm
02:00 AM 63.3°F17.4°C 51.4°F10.8°C 65% 2.9 mph SE4.7 kmh SE 4.5 mph7.2 kmh 29.90 in1012.5 mb 0.00 in0.0 mm 0.00 in/hr0.0 mm/hr 0.00 in0.0 mm
02:05 AM 63.3°F17.4°C 51.4°F10.8°C 65% 3.3 mph SSE5.3 kmh SSE 4.5 mph7.2 kmh 29.91 in1012.9 mb 0.00 in0.0 mm 0.00 in/hr0.0 mm/hr 0.00 in0.0 mm
02:10 AM 63.3°F17.4°C 51.4°F10.8°C 65% 3.9 mph SE6.3 kmh SE 5.4 mph8.7 kmh 29.91 in1012.9 mb 0.00 in0.0 mm 0.00 in/hr0.0 mm/hr 0.00 in0.0 mm
02:15 AM 63.3°F17.4°C 51.4°F10.8°C 65% 5.0 mph ESE8.0 kmh ESE 7.6 mph12.2 kmh 29.90 in1012.5 mb 0.00 in0.0 mm 0.00 in/hr0.0 mm/hr 0.00 in0.0 mm
02:20 AM 63.1°F17.3°C 51.2°F10.7°C 65% 5.1 mph ESE8.2 kmh ESE 7.6 mph12.2 kmh 29.90 in1012.5 mb 0.00 in0.0 mm 0.00 in/hr0.0 mm/hr 0.00 in0.0 mm
02:25 AM 63.1°F17.3°C 51.2°F10.7°C 65% 5.5 mph E8.9 kmh E 9.2 mph14.8 kmh 29.90 in1012.5 mb 0.00 in0.0 mm 0.00 in/hr0.0 mm/hr 0.00 in0.0 mm
02:35 AM 63.1°F17.3°C 51.2°F10.7°C 65% 4.4 mph SE7.1 kmh SE 6.9 mph11.1 kmh 29.90 in1012.5 mb 0.00 in0.0 mm 0.00 in/hr0.0 mm/hr 0.00 in0.0 mm
02:40 AM 63.0°F17.2°C 51.0°F10.6°C 65% 4.3 mph ESE6.9 kmh ESE 7.6 mph12.2 kmh 29.90 in1012.5 mb 0.00 in0.0 mm 0.00 in/hr0.0 mm/hr 0.00 in0.0 mm
02:45 AM 62.8°F17.1°C 50.9°F10.5°C 65% 4.7 mph SE7.6 kmh SE 7.6 mph12.2 kmh 29.89 in1012.2 mb 0.00 in0.0 mm 0.00 in/hr0.0 mm/hr 0.00 in0.0 mm
02:55 AM 62.6°F17.0°C 51.1°F10.6°C 66% 5.9 mph ESE9.5 kmh ESE 9.2 mph14.8 kmh 29.90 in1012.5 mb 0.00 in0.0 mm 0.00 in/hr0.0 mm/hr 0.00 in0.0 mm
03:00 AM 62.4°F16.9°C 50.9°F10.5°C 66% 4.7 mph SE7.6 kmh SE 7.6 mph12.2 kmh 29.90 in1012.5 mb 0.00 in0.0 mm 0.00 in/hr0.0 mm/hr 0.00 in0.0 mm
03:05 AM 62.4°F16.9°C 50.9°F10.5°C 66% 4.3 mph SE6.9 kmh SE 5.4 mph8.7 kmh 29.89 in1012.2 mb 0.00 in0.0 mm 0.00 in/hr0.0 mm/hr 0.00 in0.0 mm
03:15 AM 62.2°F16.8°C 50.8°F10.4°C 66% 5.6 mph SE9.0 kmh SE 9.2 mph14.8 kmh 29.89 in1012.2 mb 0.00 in0.0 mm 0.00 in/hr0.0 mm/hr 0.00 in0.0 mm
03:20 AM 62.1°F16.7°C 50.6°F10.3°C 66% 5.8 mph SE9.3 kmh SE 9.2 mph14.8 kmh 29.89 in1012.2 mb 0.00 in0.0 mm 0.00 in/hr0.0 mm/hr 0.00 in0.0 mm
03:25 AM 61.9°F16.6°C 50.4°F10.2°C 66% 5.2 mph SE8.4 kmh SE 6.9 mph11.1 kmh 29.89 in1012.2 mb 0.00 in0.0 mm 0.00 in/hr0.0 mm/hr 0.00 in0.0 mm
03:30 AM 61.9°F16.6°C 50.8°F10.4°C 67% 4.8 mph SE7.7 kmh SE 6.0 mph9.7 kmh 29.90 in1012.5 mb 0.00 in0.0 mm 0.00 in/hr0.0 mm/hr 0.00 in0.0 mm
03:35 AM 61.9°F16.6°C 50.8°F10.4°C 67% 4.8 mph SE7.7 kmh SE 7.6 mph12.2 kmh 29.89 in1012.2 mb 0.00 in0.0 mm 0.00 in/hr0.0 mm/hr 0.00 in0.0 mm
03:45 AM 61.3°F16.3°C 50.7°F10.4°C 68% 3.8 mph SE6.1 kmh SE 6.0 mph9.7 kmh 29.90 in1012.5 mb 0.00 in0.0 mm 0.00 in/hr0.0 mm/hr 0.00 in0.0 mm
03:50 AM 61.2°F16.2°C 50.5°F10.3°C 68% 4.7 mph SE7.6 kmh SE 6.0 mph9.7 kmh 29.90 in1012.5 mb 0.00 in0.0 mm 0.00 in/hr0.0 mm/hr 0.00 in0.0 mm
03:55 AM 61.2°F16.2°C 50.5°F10.3°C 68% 5.6 mph SE9.0 kmh SE 7.6 mph12.2 kmh 29.90 in1012.5 mb 0.00 in0.0 mm 0.00 in/hr0.0 mm/hr 0.00 in0.0 mm
04:00 AM 61.2°F16.2°C 50.5°F10.3°C 68% 5.8 mph ESE9.3 kmh ESE 8.3 mph13.4 kmh 29.90 in1012.5 mb 0.00 in0.0 mm 0.00 in/hr0.0 mm/hr 0.00 in0.0 mm
04:05 AM 61.2°F16.2°C 50.5°F10.3°C 68% 6.1 mph E9.8 kmh E 8.3 mph13.4 kmh 29.90 in1012.5 mb 0.00 in0.0 mm 0.00 in/hr0.0 mm/hr 0.00 in0.0 mm
04:10 AM 61.2°F16.2°C 50.5°F10.3°C 68% 6.3 mph ESE10.1 kmh ESE 8.3 mph13.4 kmh 29.90 in1012.5 mb 0.00 in0.0 mm 0.00 in/hr0.0 mm/hr 0.00 in0.0 mm
04:15 AM 61.2°F16.2°C 50.5°F10.3°C 68% 6.3 mph SE10.1 kmh SE 8.3 mph13.4 kmh 29.90 in1012.5 mb 0.00 in0.0 mm 0.00 in/hr0.0 mm/hr 0.00 in0.0 mm
04:25 AM 61.0°F16.1°C 50.4°F10.2°C 68% 6.9 mph ESE11.1 kmh ESE 10.7 mph17.2 kmh 29.90 in1012.5 mb 0.00 in0.0 mm 0.00 in/hr0.0 mm/hr 0.00 in0.0 mm
04:30 AM 61.2°F16.2°C 50.5°F10.3°C 68% 6.2 mph SE10.0 kmh SE 10.7 mph17.2 kmh 29.90 in1012.5 mb 0.00 in0.0 mm 0.00 in/hr0.0 mm/hr 0.00 in0.0 mm
04:35 AM 61.2°F16.2°C 50.5°F10.3°C 68% 6.1 mph SE9.8 kmh SE 10.7 mph17.2 kmh 29.90 in1012.5 mb 0.00 in0.0 mm 0.00 in/hr0.0 mm/hr 0.00 in0.0 mm
04:40 AM 61.0°F16.1°C 50.4°F10.2°C 68% 7.1 mph SE11.4 kmh SE 10.7 mph17.2 kmh 29.90 in1012.5 mb 0.00 in0.0 mm 0.00 in/hr0.0 mm/hr 0.00 in0.0 mm
04:45 AM 61.2°F16.2°C 50.5°F10.3°C 68% 6.8 mph SE10.9 kmh SE 10.7 mph17.2 kmh 29.91 in1012.9 mb 0.00 in0.0 mm 0.00 in/hr0.0 mm/hr 0.00 in0.0 mm
04:50 AM 61.0°F16.1°C 50.4°F10.2°C 68% 5.9 mph SE9.5 kmh SE 8.3 mph13.4 kmh 29.90 in1012.5 mb 0.00 in0.0 mm 0.00 in/hr0.0 mm/hr 0.00 in0.0 mm
04:55 AM 60.8°F16.0°C 50.2°F10.1°C 68% 5.6 mph SE9.0 kmh SE 9.2 mph14.8 kmh 29.91 in1012.9 mb 0.00 in0.0 mm 0.00 in/hr0.0 mm/hr 0.00 in0.0 mm
05:05 AM 60.8°F16.0°C 50.2°F10.1°C 68% 5.5 mph SE8.9 kmh SE 9.2 mph14.8 kmh 29.91 in1012.9 mb 0.00 in0.0 mm 0.00 in/hr0.0 mm/hr 0.00 in0.0 mm
05:10 AM 61.0°F16.1°C 50.4°F10.2°C 68% 4.5 mph ESE7.2 kmh ESE 6.9 mph11.1 kmh 29.91 in1012.9 mb 0.00 in0.0 mm 0.00 in/hr0.0 mm/hr 0.00 in0.0 mm
05:15 AM 61.0°F16.1°C 50.4°F10.2°C 68% 5.6 mph E9.0 kmh E 10.7 mph17.2 kmh 29.91 in1012.9 mb 0.00 in0.0 mm 0.00 in/hr0.0 mm/hr 0.00 in0.0 mm
05:30 AM 61.2°F16.2°C 50.5°F10.3°C 68% 5.3 mph E8.5 kmh E 6.9 mph11.1 kmh 29.93 in1013.5 mb 0.00 in0.0 mm 0.00 in/hr0.0 mm/hr 0.00 in0.0 mm
05:35 AM 61.0°F16.1°C 50.4°F10.2°C 68% 5.6 mph E9.0 kmh E 6.9 mph11.1 kmh 29.93 in1013.5 mb 0.00 in0.0 mm 0.00 in/hr0.0 mm/hr 0.00 in0.0 mm
05:40 AM 61.2°F16.2°C 50.5°F10.3°C 68% 5.6 mph E9.0 kmh E 6.9 mph11.1 kmh 29.93 in1013.5 mb 0.00 in0.0 mm 0.00 in/hr0.0 mm/hr 0.00 in0.0 mm
05:45 AM 61.2°F16.2°C 50.5°F10.3°C 68% 4.7 mph E7.6 kmh E 6.9 mph11.1 kmh 29.93 in1013.5 mb 0.00 in0.0 mm 0.00 in/hr0.0 mm/hr 0.00 in0.0 mm
05:50 AM 61.2°F16.2°C 50.5°F10.3°C 68% 4.1 mph E6.6 kmh E 6.0 mph9.7 kmh 29.93 in1013.5 mb 0.00 in0.0 mm 0.00 in/hr0.0 mm/hr 0.00 in0.0 mm
05:55 AM 61.3°F16.3°C 50.7°F10.4°C 68% 3.7 mph E6.0 kmh E 5.4 mph8.7 kmh 29.93 in1013.5 mb 0.00 in0.0 mm 0.00 in/hr0.0 mm/hr 0.00 in0.0 mm
06:00 AM 61.5°F16.4°C 50.9°F10.5°C 68% 2.4 mph SE3.9 kmh SE 3.1 mph5.0 kmh 29.93 in1013.5 mb 0.00 in0.0 mm 0.00 in/hr0.0 mm/hr 0.00 in0.0 mm
06:05 AM 61.5°F16.4°C 50.9°F10.5°C 68% 1.7 mph S2.7 kmh S 3.1 mph5.0 kmh 29.94 in1013.9 mb 0.00 in0.0 mm 0.00 in/hr0.0 mm/hr 0.00 in0.0 mm
06:10 AM 61.7°F16.5°C 51.0°F10.6°C 68% 3.0 mph SE4.8 kmh SE 6.9 mph11.1 kmh 29.93 in1013.5 mb 0.00 in0.0 mm 0.00 in/hr0.0 mm/hr 0.00 in0.0 mm
06:15 AM 61.9°F16.6°C 51.2°F10.7°C 68% 3.7 mph ESE6.0 kmh ESE 6.9 mph11.1 kmh 29.94 in1013.9 mb 0.00 in0.0 mm 0.00 in/hr0.0 mm/hr 0.00 in0.0 mm
06:20 AM 61.9°F16.6°C 51.2°F10.7°C 68% 3.5 mph ESE5.6 kmh ESE 5.4 mph8.7 kmh 29.94 in1013.9 mb 0.00 in0.0 mm 0.00 in/hr0.0 mm/hr 0.00 in0.0 mm
06:25 AM 61.7°F16.5°C 51.0°F10.6°C 68% 3.4 mph SE5.5 kmh SE 5.4 mph8.7 kmh 29.94 in1013.9 mb 0.00 in0.0 mm 0.00 in/hr0.0 mm/hr 0.00 in0.0 mm
06:35 AM 61.7°F16.5°C 51.0°F10.6°C 68% 2.2 mph SSE3.5 kmh SSE 4.5 mph7.2 kmh 29.95 in1014.2 mb 0.00 in0.0 mm 0.00 in/hr0.0 mm/hr 0.00 in0.0 mm
06:40 AM 61.5°F16.4°C 50.9°F10.5°C 68% 2.9 mph SE4.7 kmh SE 5.4 mph8.7 kmh 29.94 in1013.9 mb 0.00 in0.0 mm 0.00 in/hr0.0 mm/hr 0.00 in0.0 mm
06:45 AM 61.5°F16.4°C 50.9°F10.5°C 68% 3.2 mph SE5.1 kmh SE 5.4 mph8.7 kmh 29.95 in1014.2 mb 0.00 in0.0 mm 0.00 in/hr0.0 mm/hr 0.00 in0.0 mm
06:50 AM 61.9°F16.6°C 51.2°F10.7°C 68% 3.3 mph SE5.3 kmh SE 6.0 mph9.7 kmh 29.95 in1014.2 mb 0.00 in0.0 mm 0.00 in/hr0.0 mm/hr 0.00 in0.0 mm
06:55 AM 61.9°F16.6°C 51.2°F10.7°C 68% 3.8 mph SE6.1 kmh SE 6.0 mph9.7 kmh 29.95 in1014.2 mb 0.00 in0.0 mm 0.00 in/hr0.0 mm/hr 0.00 in0.0 mm
07:00 AM 62.2°F16.8°C 51.6°F10.9°C 68% 3.9 mph SE6.3 kmh SE 7.6 mph12.2 kmh 29.95 in1014.2 mb 0.00 in0.0 mm 0.00 in/hr0.0 mm/hr 0.00 in0.0 mm
07:05 AM 62.8°F17.1°C 52.1°F11.2°C 68% 3.0 mph SE4.8 kmh SE 7.6 mph12.2 kmh 29.95 in1014.2 mb 0.00 in0.0 mm 0.00 in/hr0.0 mm/hr 0.00 in0.0 mm
07:10 AM 63.1°F17.3°C 52.0°F11.1°C 67% 2.3 mph SE3.7 kmh SE 4.5 mph7.2 kmh 29.96 in1014.6 mb 0.00 in0.0 mm 0.00 in/hr0.0 mm/hr 0.00 in0.0 mm
07:15 AM 63.5°F17.5°C 52.4°F11.3°C 67% 2.8 mph SE4.5 kmh SE 4.5 mph7.2 kmh 29.95 in1014.2 mb 0.00 in0.0 mm 0.00 in/hr0.0 mm/hr 0.00 in0.0 mm
07:20 AM 64.2°F17.9°C 52.6°F11.4°C 66% 3.1 mph SSE5.0 kmh SSE 5.4 mph8.7 kmh 29.96 in1014.6 mb 0.00 in0.0 mm 0.00 in/hr0.0 mm/hr 0.00 in0.0 mm
07:25 AM 64.8°F18.2°C 52.7°F11.5°C 65% 3.9 mph SE6.3 kmh SE 7.6 mph12.2 kmh 29.96 in1014.6 mb 0.00 in0.0 mm 0.00 in/hr0.0 mm/hr 0.00 in0.0 mm
07:30 AM 64.8°F18.2°C 52.3°F11.3°C 64% 4.8 mph ESE7.7 kmh ESE 7.6 mph12.2 kmh 29.96 in1014.6 mb 0.00 in0.0 mm 0.00 in/hr0.0 mm/hr 0.00 in0.0 mm
07:35 AM 64.9°F18.3°C 52.5°F11.4°C 64% 5.9 mph SE9.5 kmh SE 9.8 mph15.8 kmh 29.96 in1014.6 mb 0.00 in0.0 mm 0.00 in/hr0.0 mm/hr 0.00 in0.0 mm
07:40 AM 65.3°F18.5°C 52.8°F11.6°C 64% 7.0 mph SE11.3 kmh SE 9.8 mph15.8 kmh 29.96 in1014.6 mb 0.00 in0.0 mm 0.00 in/hr0.0 mm/hr 0.00 in0.0 mm
07:45 AM 65.7°F18.7°C 53.2°F11.8°C 64% 6.2 mph SE10.0 kmh SE 9.2 mph14.8 kmh 29.96 in1014.6 mb 0.00 in0.0 mm 0.00 in/hr0.0 mm/hr 0.00 in0.0 mm
07:50 AM 65.8°F18.8°C 52.9°F11.6°C 63% 6.3 mph SE10.1 kmh SE 9.2 mph14.8 kmh 29.96 in1014.6 mb 0.00 in0.0 mm 0.00 in/hr0.0 mm/hr 0.00 in0.0 mm
07:55 AM 66.0°F18.9°C 53.5°F11.9°C 64% 5.9 mph SE9.5 kmh SE 9.2 mph14.8 kmh 29.96 in1014.6 mb 0.00 in0.0 mm 0.00 in/hr0.0 mm/hr 0.00 in0.0 mm
08:00 AM 66.0°F18.9°C 53.1°F11.7°C 63% 7.1 mph SE11.4 kmh SE 10.7 mph17.2 kmh 29.96 in1014.6 mb 0.00 in0.0 mm 0.00 in/hr0.0 mm/hr 0.00 in0.0 mm
08:05 AM 66.4°F19.1°C 53.4°F11.9°C 63% 9.2 mph SE14.8 kmh SE 12.1 mph19.5 kmh 29.96 in1014.6 mb 0.00 in0.0 mm 0.00 in/hr0.0 mm/hr 0.00 in0.0 mm
08:15 AM 68.5°F20.3°C 54.1°F12.3°C 60% 9.4 mph SE15.1 kmh SE 12.1 mph19.5 kmh 29.96 in1014.6 mb 0.00 in0.0 mm 0.00 in/hr0.0 mm/hr 0.00 in0.0 mm
08:20 AM 68.7°F20.4°C 53.8°F12.1°C 59% 8.9 mph SE14.3 kmh SE 12.1 mph19.5 kmh 29.96 in1014.6 mb 0.00 in0.0 mm 0.00 in/hr0.0 mm/hr 0.00 in0.0 mm
08:25 AM 68.9°F20.5°C 53.5°F11.9°C 58% 8.2 mph SE13.2 kmh SE 12.1 mph19.5 kmh 29.96 in1014.6 mb 0.00 in0.0 mm 0.00 in/hr0.0 mm/hr 0.00 in0.0 mm
08:30 AM 69.1°F20.6°C 53.7°F12.1°C 58% 8.8 mph SE14.2 kmh SE 12.1 mph19.5 kmh 29.97 in1014.9 mb 0.00 in0.0 mm 0.00 in/hr0.0 mm/hr 0.00 in0.0 mm
08:35 AM 68.5°F20.3°C 52.7°F11.5°C 57% 10.0 mph SE16.1 kmh SE 12.1 mph19.5 kmh 29.97 in1014.9 mb 0.00 in0.0 mm 0.00 in/hr0.0 mm/hr 0.00 in0.0 mm
08:40 AM 68.4°F20.2°C 53.0°F11.7°C 58% 10.1 mph SE16.3 kmh SE 12.1 mph19.5 kmh 29.97 in1014.9 mb 0.00 in0.0 mm 0.00 in/hr0.0 mm/hr 0.00 in0.0 mm
08:45 AM 68.5°F20.3°C 53.2°F11.8°C 58% 8.8 mph ESE14.2 kmh ESE 11.4 mph18.3 kmh 29.97 in1014.9 mb 0.00 in0.0 mm 0.00 in/hr0.0 mm/hr 0.00 in0.0 mm
08:50 AM 68.7°F20.4°C 53.4°F11.9°C 58% 7.8 mph SE12.6 kmh SE 11.4 mph18.3 kmh 29.97 in1014.9 mb 0.00 in0.0 mm 0.00 in/hr0.0 mm/hr 0.00 in0.0 mm
08:55 AM 68.7°F20.4°C 52.9°F11.6°C 57% 7.8 mph SE12.6 kmh SE 9.8 mph15.8 kmh 29.97 in1014.9 mb 0.00 in0.0 mm 0.00 in/hr0.0 mm/hr 0.00 in0.0 mm
09:00 AM 68.5°F20.3°C 53.2°F11.8°C 58% 7.0 mph SE11.3 kmh SE 9.8 mph15.8 kmh 29.97 in1014.9 mb 0.00 in0.0 mm 0.00 in/hr0.0 mm/hr 0.00 in0.0 mm
09:05 AM 68.5°F20.3°C 53.2°F11.8°C 58% 5.9 mph SE9.5 kmh SE 7.6 mph12.2 kmh 29.97 in1014.9 mb 0.00 in0.0 mm 0.00 in/hr0.0 mm/hr 0.00 in0.0 mm
09:10 AM 68.5°F20.3°C 53.2°F11.8°C 58% 6.8 mph SE10.9 kmh SE 10.7 mph17.2 kmh 29.98 in1015.2 mb 0.00 in0.0 mm 0.00 in/hr0.0 mm/hr 0.00 in0.0 mm
09:15 AM 68.9°F20.5°C 53.5°F11.9°C 58% 8.6 mph ESE13.8 kmh ESE 12.1 mph19.5 kmh 29.97 in1014.9 mb 0.00 in0.0 mm 0.00 in/hr0.0 mm/hr 0.00 in0.0 mm
09:20 AM 69.1°F20.6°C 53.7°F12.1°C 58% 7.7 mph ESE12.4 kmh ESE 12.1 mph19.5 kmh 29.97 in1014.9 mb 0.00 in0.0 mm 0.00 in/hr0.0 mm/hr 0.00 in0.0 mm
09:25 AM 69.4°F20.8°C 54.0°F12.2°C 58% 7.0 mph SE11.3 kmh SE 9.8 mph15.8 kmh 29.97 in1014.9 mb 0.00 in0.0 mm 0.00 in/hr0.0 mm/hr 0.00 in0.0 mm
09:30 AM 70.0°F21.1°C 54.1°F12.3°C 57% 7.4 mph SE11.9 kmh SE 9.8 mph15.8 kmh 29.97 in1014.9 mb 0.00 in0.0 mm 0.00 in/hr0.0 mm/hr 0.00 in0.0 mm
09:35 AM 70.0°F21.1°C 54.1°F12.3°C 57% 6.1 mph SE9.8 kmh SE 7.6 mph12.2 kmh 29.97 in1014.9 mb 0.00 in0.0 mm 0.00 in/hr0.0 mm/hr 0.00 in0.0 mm
09:40 AM 70.9°F21.6°C 54.9°F12.7°C 57% 7.3 mph ESE11.7 kmh ESE 11.4 mph18.3 kmh 29.97 in1014.9 mb 0.00 in0.0 mm 0.00 in/hr0.0 mm/hr 0.00 in0.0 mm
09:45 AM 72.9°F22.7°C 56.8°F13.8°C 57% 7.8 mph ESE12.6 kmh ESE 11.4 mph18.3 kmh 29.97 in1014.9 mb 0.00 in0.0 mm 0.00 in/hr0.0 mm/hr 0.00 in0.0 mm
09:50 AM 73.8°F23.2°C 56.1°F13.4°C 54% 7.8 mph ESE12.6 kmh ESE 13.0 mph20.9 kmh 29.97 in1014.9 mb 0.00 in0.0 mm 0.00 in/hr0.0 mm/hr 0.00 in0.0 mm
09:55 AM 73.6°F23.1°C 55.9°F13.3°C 54% 9.0 mph ESE14.5 kmh ESE 13.0 mph20.9 kmh 29.97 in1014.9 mb 0.00 in0.0 mm 0.00 in/hr0.0 mm/hr 0.00 in0.0 mm
10:00 AM 74.8°F23.8°C 56.6°F13.7°C 53% 9.0 mph ESE14.5 kmh ESE 13.0 mph20.9 kmh 29.96 in1014.6 mb 0.00 in0.0 mm 0.00 in/hr0.0 mm/hr 0.00 in0.0 mm
10:10 AM 75.7°F24.3°C 55.8°F13.2°C 50% 10.7 mph E17.2 kmh E 14.5 mph23.3 kmh 29.96 in1014.6 mb 0.00 in0.0 mm 0.00 in/hr0.0 mm/hr 0.00 in0.0 mm
10:20 AM 76.8°F24.9°C 56.8°F13.8°C 50% 8.7 mph E14.0 kmh E 14.5 mph23.3 kmh 29.96 in1014.6 mb 0.00 in0.0 mm 0.00 in/hr0.0 mm/hr 0.00 in0.0 mm
10:25 AM 76.8°F24.9°C 55.1°F12.8°C 47% 9.6 mph E15.4 kmh E 14.5 mph23.3 kmh 29.96 in1014.6 mb 0.00 in0.0 mm 0.00 in/hr0.0 mm/hr 0.00 in0.0 mm
10:30 AM 76.6°F24.8°C 56.1°F13.4°C 49% 11.3 mph E18.2 kmh E 14.5 mph23.3 kmh 29.96 in1014.6 mb 0.00 in0.0 mm 0.00 in/hr0.0 mm/hr 0.00 in0.0 mm
10:35 AM 77.0°F25.0°C 57.0°F13.9°C 50% 10.6 mph E17.1 kmh E 14.5 mph23.3 kmh 29.96 in1014.6 mb 0.00 in0.0 mm 0.00 in/hr0.0 mm/hr 0.00 in0.0 mm
10:40 AM 77.0°F25.0°C 55.8°F13.2°C 48% 10.7 mph E17.2 kmh E 15.2 mph24.5 kmh 29.96 in1014.6 mb 0.00 in0.0 mm 0.00 in/hr0.0 mm/hr 0.00 in0.0 mm
10:45 AM 76.8°F24.9°C 55.7°F13.2°C 48% 11.7 mph E18.8 kmh E 15.2 mph24.5 kmh 29.96 in1014.6 mb 0.00 in0.0 mm 0.00 in/hr0.0 mm/hr 0.00 in0.0 mm
10:50 AM 77.5°F25.3°C 56.9°F13.8°C 49% 10.8 mph E17.4 kmh E 12.1 mph19.5 kmh 29.95 in1014.2 mb 0.00 in0.0 mm 0.00 in/hr0.0 mm/hr 0.00 in0.0 mm
10:55 AM 78.3°F25.7°C 57.0°F13.9°C 48% 9.3 mph ESE15.0 kmh ESE 12.1 mph19.5 kmh 29.96 in1014.6 mb 0.00 in0.0 mm 0.00 in/hr0.0 mm/hr 0.00 in0.0 mm
11:05 AM 79.0°F26.1°C 56.5°F13.6°C 46% 10.8 mph E17.4 kmh E 15.9 mph25.6 kmh 29.96 in1014.6 mb 0.00 in0.0 mm 0.00 in/hr0.0 mm/hr 0.00 in0.0 mm
11:10 AM 78.1°F25.6°C 56.2°F13.4°C 47% 10.2 mph E16.4 kmh E 15.9 mph25.6 kmh 29.96 in1014.6 mb 0.00 in0.0 mm 0.00 in/hr0.0 mm/hr 0.00 in0.0 mm
11:15 AM 78.4°F25.8°C 56.6°F13.7°C 47% 10.0 mph E16.1 kmh E 14.5 mph23.3 kmh 29.95 in1014.2 mb 0.00 in0.0 mm 0.00 in/hr0.0 mm/hr 0.00 in0.0 mm
11:20 AM 79.3°F26.3°C 57.4°F14.1°C 47% 10.4 mph E16.7 kmh E 14.5 mph23.3 kmh 29.95 in1014.2 mb 0.00 in0.0 mm 0.00 in/hr0.0 mm/hr 0.00 in0.0 mm
11:25 AM 79.5°F26.4°C 57.0°F13.9°C 46% 9.7 mph ESE15.6 kmh ESE 12.1 mph19.5 kmh 29.95 in1014.2 mb 0.00 in0.0 mm 0.00 in/hr0.0 mm/hr 0.00 in0.0 mm
11:30 AM 80.4°F26.9°C 58.4°F14.7°C 47% 9.6 mph ESE15.4 kmh ESE 12.1 mph19.5 kmh 29.95 in1014.2 mb 0.00 in0.0 mm 0.00 in/hr0.0 mm/hr 0.00 in0.0 mm
11:35 AM 81.1°F27.3°C 57.8°F14.3°C 45% 9.1 mph E14.6 kmh E 11.4 mph18.3 kmh 29.95 in1014.2 mb 0.00 in0.0 mm 0.00 in/hr0.0 mm/hr 0.00 in0.0 mm
11:40 AM 81.3°F27.4°C 57.4°F14.1°C 44% 8.5 mph ESE13.7 kmh ESE 11.4 mph18.3 kmh 29.95 in1014.2 mb 0.00 in0.0 mm 0.00 in/hr0.0 mm/hr 0.00 in0.0 mm
11:45 AM 80.8°F27.1°C 56.9°F13.8°C 44% 9.4 mph E15.1 kmh E 15.9 mph25.6 kmh 29.95 in1014.2 mb 0.00 in0.0 mm 0.00 in/hr0.0 mm/hr 0.00 in0.0 mm
11:50 AM 80.4°F26.9°C 56.6°F13.7°C 44% 9.9 mph E15.9 kmh E 15.9 mph25.6 kmh 29.95 in1014.2 mb 0.00 in0.0 mm 0.00 in/hr0.0 mm/hr 0.00 in0.0 mm
11:55 AM 79.7°F26.5°C 56.5°F13.6°C 45% 8.8 mph E14.2 kmh E 11.4 mph18.3 kmh 29.94 in1013.9 mb 0.00 in0.0 mm 0.00 in/hr0.0 mm/hr 0.00 in0.0 mm
12:00 PM 81.1°F27.3°C 57.8°F14.3°C 45% 8.5 mph E13.7 kmh E 11.4 mph18.3 kmh 29.94 in1013.9 mb 0.00 in0.0 mm 0.00 in/hr0.0 mm/hr 0.00 in0.0 mm
12:10 PM 83.1°F28.4°C 59.0°F15.0°C 44% 7.6 mph ESE12.2 kmh ESE 11.4 mph18.3 kmh 29.93 in1013.5 mb 0.00 in0.0 mm 0.00 in/hr0.0 mm/hr 0.00 in0.0 mm
12:20 PM 84.2°F29.0°C 58.0°F14.4°C 41% 9.2 mph ESE14.8 kmh ESE 15.2 mph24.5 kmh 29.94 in1013.9 mb 0.00 in0.0 mm 0.00 in/hr0.0 mm/hr 0.00 in0.0 mm
12:25 PM 83.7°F28.7°C 58.8°F14.9°C 43% 9.2 mph ESE14.8 kmh ESE 14.5 mph23.3 kmh 29.94 in1013.9 mb 0.00 in0.0 mm 0.00 in/hr0.0 mm/hr 0.00 in0.0 mm
12:30 PM 82.8°F28.2°C 57.4°F14.1°C 42% 9.4 mph ESE15.1 kmh ESE 14.5 mph23.3 kmh 29.93 in1013.5 mb 0.00 in0.0 mm 0.00 in/hr0.0 mm/hr 0.00 in0.0 mm
12:35 PM 81.1°F27.3°C 57.2°F14.0°C 44% 9.2 mph ESE14.8 kmh ESE 14.5 mph23.3 kmh 29.93 in1013.5 mb 0.00 in0.0 mm 0.00 in/hr0.0 mm/hr 0.00 in0.0 mm
12:40 PM 81.9°F27.7°C 58.5°F14.7°C 45% 8.2 mph E13.2 kmh E 11.4 mph18.3 kmh 29.93 in1013.5 mb 0.00 in0.0 mm 0.00 in/hr0.0 mm/hr 0.00 in0.0 mm
12:45 PM 82.2°F27.9°C 58.2°F14.6°C 44% 8.7 mph ESE14.0 kmh ESE 13.6 mph21.9 kmh 29.93 in1013.5 mb 0.00 in0.0 mm 0.00 in/hr0.0 mm/hr 0.00 in0.0 mm
12:50 PM 81.1°F27.3°C 56.6°F13.7°C 43% 9.1 mph E14.6 kmh E 13.6 mph21.9 kmh 29.93 in1013.5 mb 0.00 in0.0 mm 0.00 in/hr0.0 mm/hr 0.00 in0.0 mm
01:00 PM 78.4°F25.8°C 55.4°F13.0°C 45% 9.4 mph E15.1 kmh E 13.6 mph21.9 kmh 29.92 in1013.2 mb 0.00 in0.0 mm 0.00 in/hr0.0 mm/hr 0.00 in0.0 mm
01:05 PM 78.1°F25.6°C 55.7°F13.2°C 46% 8.8 mph ESE14.2 kmh ESE 10.7 mph17.2 kmh 29.92 in1013.2 mb 0.00 in0.0 mm 0.00 in/hr0.0 mm/hr 0.00 in0.0 mm
01:10 PM 80.2°F26.8°C 58.8°F14.9°C 48% 7.6 mph ESE12.2 kmh ESE 9.8 mph15.8 kmh 29.92 in1013.2 mb 0.00 in0.0 mm 0.00 in/hr0.0 mm/hr 0.00 in0.0 mm
01:15 PM 82.2°F27.9°C 58.2°F14.6°C 44% 7.4 mph E11.9 kmh E 9.8 mph15.8 kmh 29.92 in1013.2 mb 0.00 in0.0 mm 0.00 in/hr0.0 mm/hr 0.00 in0.0 mm
01:20 PM 81.0°F27.2°C 56.4°F13.6°C 43% 8.0 mph E12.9 kmh E 11.4 mph18.3 kmh 29.92 in1013.2 mb 0.00 in0.0 mm 0.00 in/hr0.0 mm/hr 0.00 in0.0 mm
01:25 PM 80.8°F27.1°C 56.9°F13.8°C 44% 9.0 mph E14.5 kmh E 13.0 mph20.9 kmh 29.91 in1012.9 mb 0.00 in0.0 mm 0.00 in/hr0.0 mm/hr 0.00 in0.0 mm
01:30 PM 82.0°F27.8°C 58.6°F14.8°C 45% 10.2 mph E16.4 kmh E 13.6 mph21.9 kmh 29.91 in1012.9 mb 0.00 in0.0 mm 0.00 in/hr0.0 mm/hr 0.00 in0.0 mm
01:40 PM 83.7°F28.7°C 58.2°F14.6°C 42% 7.6 mph ESE12.2 kmh ESE 9.2 mph14.8 kmh 29.91 in1012.9 mb 0.00 in0.0 mm 0.00 in/hr0.0 mm/hr 0.00 in0.0 mm
01:45 PM 82.4°F28.0°C 56.4°F13.6°C 41% 7.6 mph SE12.2 kmh SE 9.2 mph14.8 kmh 29.91 in1012.9 mb 0.00 in0.0 mm 0.00 in/hr0.0 mm/hr 0.00 in0.0 mm
01:50 PM 81.5°F27.5°C 56.2°F13.4°C 42% 6.5 mph SE10.5 kmh SE 9.2 mph14.8 kmh 29.91 in1012.9 mb 0.00 in0.0 mm 0.00 in/hr0.0 mm/hr 0.00 in0.0 mm
01:55 PM 80.8°F27.1°C 56.9°F13.8°C 44% 5.8 mph SSE9.3 kmh SSE 6.9 mph11.1 kmh 29.91 in1012.9 mb 0.00 in0.0 mm 0.00 in/hr0.0 mm/hr 0.00 in0.0 mm
02:00 PM 81.7°F27.6°C 58.3°F14.6°C 45% 5.7 mph S9.2 kmh S 9.2 mph14.8 kmh 29.90 in1012.5 mb 0.00 in0.0 mm 0.00 in/hr0.0 mm/hr 0.00 in0.0 mm
02:05 PM 82.8°F28.2°C 58.7°F14.8°C 44% 5.9 mph SSE9.5 kmh SSE 9.8 mph15.8 kmh 29.91 in1012.9 mb 0.00 in0.0 mm 0.00 in/hr0.0 mm/hr 0.00 in0.0 mm
02:10 PM 82.6°F28.1°C 57.9°F14.4°C 43% 6.2 mph SE10.0 kmh SE 9.8 mph15.8 kmh 29.91 in1012.9 mb 0.00 in0.0 mm 0.00 in/hr0.0 mm/hr 0.00 in0.0 mm
02:15 PM 82.6°F28.1°C 57.2°F14.0°C 42% 6.9 mph E11.1 kmh E 9.2 mph14.8 kmh 29.91 in1012.9 mb 0.00 in0.0 mm 0.00 in/hr0.0 mm/hr 0.00 in0.0 mm
02:20 PM 82.8°F28.2°C 56.0°F13.3°C 40% 7.9 mph ESE12.7 kmh ESE 9.8 mph15.8 kmh 29.90 in1012.5 mb 0.00 in0.0 mm 0.00 in/hr0.0 mm/hr 0.00 in0.0 mm
02:30 PM 82.2°F27.9°C 56.2°F13.4°C 41% 5.8 mph SE9.3 kmh SE 9.2 mph14.8 kmh 29.90 in1012.5 mb 0.00 in0.0 mm 0.00 in/hr0.0 mm/hr 0.00 in0.0 mm
02:35 PM 81.7°F27.6°C 55.7°F13.2°C 41% 5.0 mph SE8.0 kmh SE 8.3 mph13.4 kmh 29.89 in1012.2 mb 0.00 in0.0 mm 0.00 in/hr0.0 mm/hr 0.00 in0.0 mm
02:40 PM 81.3°F27.4°C 56.1°F13.4°C 42% 6.2 mph SSE10.0 kmh SSE 8.3 mph13.4 kmh 29.90 in1012.5 mb 0.00 in0.0 mm 0.00 in/hr0.0 mm/hr 0.00 in0.0 mm
02:50 PM 83.8°F28.8°C 59.0°F15.0°C 43% 5.1 mph SSE8.2 kmh SSE 6.9 mph11.1 kmh 29.89 in1012.2 mb 0.00 in0.0 mm 0.00 in/hr0.0 mm/hr 0.00 in0.0 mm
02:55 PM 85.3°F29.6°C 58.3°F14.6°C 40% 5.0 mph SSE8.0 kmh SSE 9.8 mph15.8 kmh 29.89 in1012.2 mb 0.00 in0.0 mm 0.00 in/hr0.0 mm/hr 0.00 in0.0 mm
03:00 PM 84.9°F29.4°C 56.5°F13.6°C 38% 5.5 mph SE8.9 kmh SE 9.8 mph15.8 kmh 29.89 in1012.2 mb 0.00 in0.0 mm 0.00 in/hr0.0 mm/hr 0.00 in0.0 mm
03:05 PM 85.5°F29.7°C 57.7°F14.3°C 39% 6.7 mph SE10.8 kmh SE 9.2 mph14.8 kmh 29.89 in1012.2 mb 0.00 in0.0 mm 0.00 in/hr0.0 mm/hr 0.00 in0.0 mm
03:10 PM 85.6°F29.8°C 56.4°F13.6°C 37% 7.1 mph SE11.4 kmh SE 10.7 mph17.2 kmh 29.89 in1012.2 mb 0.00 in0.0 mm 0.00 in/hr0.0 mm/hr 0.00 in0.0 mm
03:15 PM 84.6°F29.2°C 54.7°F12.6°C 36% 9.4 mph E15.1 kmh E 19.0 mph30.6 kmh 29.88 in1011.9 mb 0.00 in0.0 mm 0.00 in/hr0.0 mm/hr 0.00 in0.0 mm
03:20 PM 83.8°F28.8°C 55.6°F13.1°C 38% 11.3 mph ESE18.2 kmh ESE 19.0 mph30.6 kmh 29.89 in1012.2 mb 0.00 in0.0 mm 0.00 in/hr0.0 mm/hr 0.00 in0.0 mm
03:25 PM 82.9°F28.3°C 55.5°F13.1°C 39% 9.9 mph SSE15.9 kmh SSE 14.5 mph23.3 kmh 29.89 in1012.2 mb 0.00 in0.0 mm 0.00 in/hr0.0 mm/hr 0.00 in0.0 mm
03:30 PM 82.9°F28.3°C 56.2°F13.4°C 40% 7.4 mph SSE11.9 kmh SSE 12.1 mph19.5 kmh 29.89 in1012.2 mb 0.00 in0.0 mm 0.00 in/hr0.0 mm/hr 0.00 in0.0 mm
03:40 PM 83.8°F28.8°C 56.3°F13.5°C 39% 8.4 mph SE13.5 kmh SE 11.4 mph18.3 kmh 29.88 in1011.9 mb 0.00 in0.0 mm 0.00 in/hr0.0 mm/hr 0.00 in0.0 mm
03:45 PM 84.2°F29.0°C 56.6°F13.7°C 39% 9.1 mph SSE14.6 kmh SSE 11.4 mph18.3 kmh 29.89 in1012.2 mb 0.00 in0.0 mm 0.00 in/hr0.0 mm/hr 0.00 in0.0 mm
03:50 PM 84.7°F29.3°C 57.1°F13.9°C 39% 7.7 mph S12.4 kmh S 10.7 mph17.2 kmh 29.89 in1012.2 mb 0.00 in0.0 mm 0.00 in/hr0.0 mm/hr 0.00 in0.0 mm
03:55 PM 85.3°F29.6°C 56.1°F13.4°C 37% 7.4 mph SSE11.9 kmh SSE 12.1 mph19.5 kmh 29.89 in1012.2 mb 0.00 in0.0 mm 0.00 in/hr0.0 mm/hr 0.00 in0.0 mm
04:00 PM 85.3°F29.6°C 55.4°F13.0°C 36% 7.8 mph SE12.6 kmh SE 12.1 mph19.5 kmh 29.88 in1011.9 mb 0.00 in0.0 mm 0.00 in/hr0.0 mm/hr 0.00 in0.0 mm
04:05 PM 85.3°F29.6°C 56.1°F13.4°C 37% 7.4 mph SE11.9 kmh SE 10.7 mph17.2 kmh 29.88 in1011.9 mb 0.00 in0.0 mm 0.00 in/hr0.0 mm/hr 0.00 in0.0 mm
04:10 PM 84.7°F29.3°C 52.5°F11.4°C 33% 8.7 mph ESE14.0 kmh ESE 13.6 mph21.9 kmh 29.88 in1011.9 mb 0.00 in0.0 mm 0.00 in/hr0.0 mm/hr 0.00 in0.0 mm
04:15 PM 83.7°F28.7°C 53.2°F11.8°C 35% 9.8 mph ESE15.8 kmh ESE 13.6 mph21.9 kmh 29.88 in1011.9 mb 0.00 in0.0 mm 0.00 in/hr0.0 mm/hr 0.00 in0.0 mm
04:20 PM 82.9°F28.3°C 51.7°F10.9°C 34% 9.0 mph ESE14.5 kmh ESE 12.1 mph19.5 kmh 29.88 in1011.9 mb 0.00 in0.0 mm 0.00 in/hr0.0 mm/hr 0.00 in0.0 mm
04:25 PM 83.1°F28.4°C 53.4°F11.9°C 36% 7.1 mph ESE11.4 kmh ESE 12.1 mph19.5 kmh 29.88 in1011.9 mb 0.00 in0.0 mm 0.00 in/hr0.0 mm/hr 0.00 in0.0 mm
04:30 PM 82.9°F28.3°C 52.5°F11.4°C 35% 7.3 mph ESE11.7 kmh ESE 13.0 mph20.9 kmh 29.88 in1011.9 mb 0.00 in0.0 mm 0.00 in/hr0.0 mm/hr 0.00 in0.0 mm
04:35 PM 81.9°F27.7°C 51.6°F10.9°C 35% 9.0 mph ESE14.5 kmh ESE 13.0 mph20.9 kmh 29.88 in1011.9 mb 0.00 in0.0 mm 0.00 in/hr0.0 mm/hr 0.00 in0.0 mm
04:40 PM 80.6°F27.0°C 51.2°F10.7°C 36% 8.6 mph SE13.8 kmh SE 13.0 mph20.9 kmh 29.88 in1011.9 mb 0.00 in0.0 mm 0.00 in/hr0.0 mm/hr 0.00 in0.0 mm
04:45 PM 80.2°F26.8°C 50.1°F10.1°C 35% 8.3 mph ESE13.4 kmh ESE 11.4 mph18.3 kmh 29.88 in1011.9 mb 0.00 in0.0 mm 0.00 in/hr0.0 mm/hr 0.00 in0.0 mm
04:50 PM 79.2°F26.2°C 49.9°F9.9°C 36% 9.4 mph ESE15.1 kmh ESE 12.1 mph19.5 kmh 29.88 in1011.9 mb 0.00 in0.0 mm 0.00 in/hr0.0 mm/hr 0.00 in0.0 mm
05:00 PM 78.1°F25.6°C 49.7°F9.8°C 37% 9.9 mph ESE15.9 kmh ESE 18.3 mph29.5 kmh 29.88 in1011.9 mb 0.00 in0.0 mm 0.00 in/hr0.0 mm/hr 0.00 in0.0 mm
05:05 PM 77.5°F25.3°C 49.2°F9.6°C 37% 10.1 mph ESE16.3 kmh ESE 13.0 mph20.9 kmh 29.88 in1011.9 mb 0.00 in0.0 mm 0.00 in/hr0.0 mm/hr 0.00 in0.0 mm
05:10 PM 77.0°F25.0°C 49.5°F9.7°C 38% 10.2 mph SE16.4 kmh SE 13.0 mph20.9 kmh 29.89 in1012.2 mb 0.00 in0.0 mm 0.00 in/hr0.0 mm/hr 0.00 in0.0 mm
05:15 PM 76.5°F24.7°C 49.0°F9.4°C 38% 10.4 mph SE16.7 kmh SE 16.8 mph27.0 kmh 29.89 in1012.2 mb 0.00 in0.0 mm 0.00 in/hr0.0 mm/hr 0.00 in0.0 mm
05:20 PM 76.1°F24.5°C 49.4°F9.7°C 39% 10.3 mph ESE16.6 kmh ESE 16.8 mph27.0 kmh 29.89 in1012.2 mb 0.00 in0.0 mm 0.00 in/hr0.0 mm/hr 0.00 in0.0 mm
05:25 PM 75.9°F24.4°C 49.2°F9.6°C 39% 9.5 mph SE15.3 kmh SE 12.1 mph19.5 kmh 29.89 in1012.2 mb 0.00 in0.0 mm 0.00 in/hr0.0 mm/hr 0.00 in0.0 mm
05:30 PM 75.7°F24.3°C 49.7°F9.8°C 40% 9.5 mph SE15.3 kmh SE 12.1 mph19.5 kmh 29.89 in1012.2 mb 0.00 in0.0 mm 0.00 in/hr0.0 mm/hr 0.00 in0.0 mm
05:35 PM 75.0°F23.9°C 49.1°F9.5°C 40% 9.3 mph SE15.0 kmh SE 13.0 mph20.9 kmh 29.89 in1012.2 mb 0.00 in0.0 mm 0.00 in/hr0.0 mm/hr 0.00 in0.0 mm
05:40 PM 74.7°F23.7°C 48.8°F9.3°C 40% 9.3 mph SE15.0 kmh SE 13.0 mph20.9 kmh 29.89 in1012.2 mb 0.00 in0.0 mm 0.00 in/hr0.0 mm/hr 0.00 in0.0 mm
05:45 PM 74.5°F23.6°C 49.3°F9.6°C 41% 10.6 mph SE17.1 kmh SE 16.8 mph27.0 kmh 29.90 in1012.5 mb 0.00 in0.0 mm 0.00 in/hr0.0 mm/hr 0.00 in0.0 mm
05:50 PM 73.9°F23.3°C 49.4°F9.7°C 42% 12.9 mph SE20.8 kmh SE 17.4 mph28.0 kmh 29.90 in1012.5 mb 0.00 in0.0 mm 0.00 in/hr0.0 mm/hr 0.00 in0.0 mm
05:55 PM 73.6°F23.1°C 49.7°F9.8°C 43% 14.1 mph SE22.7 kmh SE 18.3 mph29.5 kmh 29.90 in1012.5 mb 0.00 in0.0 mm 0.00 in/hr0.0 mm/hr 0.00 in0.0 mm
06:00 PM 73.6°F23.1°C 50.4°F10.2°C 44% 13.7 mph SE22.0 kmh SE 18.3 mph29.5 kmh 29.91 in1012.9 mb 0.00 in0.0 mm 0.00 in/hr0.0 mm/hr 0.00 in0.0 mm
06:05 PM 73.8°F23.2°C 49.9°F9.9°C 43% 12.3 mph SE19.8 kmh SE 17.4 mph28.0 kmh 29.91 in1012.9 mb 0.00 in0.0 mm 0.00 in/hr0.0 mm/hr 0.00 in0.0 mm
06:10 PM 73.6°F23.1°C 49.7°F9.8°C 43% 11.0 mph ESE17.7 kmh ESE 13.0 mph20.9 kmh 29.91 in1012.9 mb 0.00 in0.0 mm 0.00 in/hr0.0 mm/hr 0.00 in0.0 mm
06:15 PM 73.2°F22.9°C 48.8°F9.3°C 42% 10.8 mph ESE17.4 kmh ESE 15.2 mph24.5 kmh 29.92 in1013.2 mb 0.00 in0.0 mm 0.00 in/hr0.0 mm/hr 0.00 in0.0 mm
06:20 PM 72.9°F22.7°C 48.5°F9.2°C 42% 12.5 mph ESE20.1 kmh ESE 15.9 mph25.6 kmh 29.91 in1012.9 mb 0.00 in0.0 mm 0.00 in/hr0.0 mm/hr 0.00 in0.0 mm
06:30 PM 72.3°F22.4°C 48.6°F9.2°C 43% 12.3 mph SSE19.8 kmh SSE 15.2 mph24.5 kmh 29.92 in1013.2 mb 0.00 in0.0 mm 0.00 in/hr0.0 mm/hr 0.00 in0.0 mm
06:35 PM 72.0°F22.2°C 48.3°F9.1°C 43% 11.6 mph SSE18.7 kmh SSE 15.2 mph24.5 kmh 29.92 in1013.2 mb 0.00 in0.0 mm 0.00 in/hr0.0 mm/hr 0.00 in0.0 mm
06:40 PM 71.4°F21.9°C 47.8°F8.8°C 43% 12.2 mph SE19.6 kmh SE 15.9 mph25.6 kmh 29.92 in1013.2 mb 0.00 in0.0 mm 0.00 in/hr0.0 mm/hr 0.00 in0.0 mm
06:45 PM 71.1°F21.7°C 48.7°F9.3°C 45% 11.8 mph SE19.0 kmh SE 15.9 mph25.6 kmh 29.93 in1013.5 mb 0.00 in0.0 mm 0.00 in/hr0.0 mm/hr 0.00 in0.0 mm
06:50 PM 70.9°F21.6°C 48.5°F9.2°C 45% 9.6 mph SE15.4 kmh SE 12.1 mph19.5 kmh 29.93 in1013.5 mb 0.00 in0.0 mm 0.00 in/hr0.0 mm/hr 0.00 in0.0 mm
06:55 PM 70.5°F21.4°C 48.2°F9.0°C 45% 8.2 mph SE13.2 kmh SE 12.1 mph19.5 kmh 29.93 in1013.5 mb 0.00 in0.0 mm 0.00 in/hr0.0 mm/hr 0.00 in0.0 mm
07:00 PM 70.3°F21.3°C 48.6°F9.2°C 46% 8.0 mph ESE12.9 kmh ESE 10.7 mph17.2 kmh 29.93 in1013.5 mb 0.00 in0.0 mm 0.00 in/hr0.0 mm/hr 0.00 in0.0 mm
07:05 PM 70.0°F21.1°C 48.3°F9.1°C 46% 8.3 mph SE13.4 kmh SE 10.7 mph17.2 kmh 29.93 in1013.5 mb 0.00 in0.0 mm 0.00 in/hr0.0 mm/hr 0.00 in0.0 mm
07:10 PM 69.6°F20.9°C 48.5°F9.2°C 47% 8.9 mph SE14.3 kmh SE 10.7 mph17.2 kmh 29.93 in1013.5 mb 0.00 in0.0 mm 0.00 in/hr0.0 mm/hr 0.00 in0.0 mm
07:15 PM 69.3°F20.7°C 48.2°F9.0°C 47% 8.0 mph SE12.9 kmh SE 10.7 mph17.2 kmh 29.93 in1013.5 mb 0.00 in0.0 mm 0.00 in/hr0.0 mm/hr 0.00 in0.0 mm
07:20 PM 68.9°F20.5°C 48.4°F9.1°C 48% 6.8 mph ESE10.9 kmh ESE 9.2 mph14.8 kmh 29.94 in1013.9 mb 0.00 in0.0 mm 0.00 in/hr0.0 mm/hr 0.00 in0.0 mm
07:30 PM 68.5°F20.3°C 48.1°F8.9°C 48% 7.0 mph SE11.3 kmh SE 9.2 mph14.8 kmh 29.94 in1013.9 mb 0.00 in0.0 mm 0.00 in/hr0.0 mm/hr 0.00 in0.0 mm
07:35 PM 68.4°F20.2°C 48.5°F9.2°C 49% 6.9 mph SE11.1 kmh SE 10.7 mph17.2 kmh 29.94 in1013.9 mb 0.00 in0.0 mm 0.00 in/hr0.0 mm/hr 0.00 in0.0 mm
07:40 PM 68.0°F20.0°C 48.1°F8.9°C 49% 8.2 mph SE13.2 kmh SE 11.4 mph18.3 kmh 29.95 in1014.2 mb 0.00 in0.0 mm 0.00 in/hr0.0 mm/hr 0.00 in0.0 mm
07:45 PM 67.8°F19.9°C 48.0°F8.9°C 49% 9.0 mph SE14.5 kmh SE 11.4 mph18.3 kmh 29.95 in1014.2 mb 0.00 in0.0 mm 0.00 in/hr0.0 mm/hr 0.00 in0.0 mm
07:50 PM 67.6°F19.8°C 47.8°F8.8°C 49% 8.2 mph SE13.2 kmh SE 11.4 mph18.3 kmh 29.95 in1014.2 mb 0.00 in0.0 mm 0.00 in/hr0.0 mm/hr 0.00 in0.0 mm
07:55 PM 67.3°F19.6°C 48.0°F8.9°C 50% 8.6 mph SE13.8 kmh SE 12.1 mph19.5 kmh 29.95 in1014.2 mb 0.00 in0.0 mm 0.00 in/hr0.0 mm/hr 0.00 in0.0 mm
08:00 PM 67.1°F19.5°C 47.9°F8.8°C 50% 10.0 mph SE16.1 kmh SE 13.0 mph20.9 kmh 29.95 in1014.2 mb 0.00 in0.0 mm 0.00 in/hr0.0 mm/hr 0.00 in0.0 mm
08:05 PM 66.7°F19.3°C 48.1°F8.9°C 51% 9.6 mph SE15.4 kmh SE 13.0 mph20.9 kmh 29.96 in1014.6 mb 0.00 in0.0 mm 0.00 in/hr0.0 mm/hr 0.00 in0.0 mm
08:10 PM 66.6°F19.2°C 47.9°F8.8°C 51% 8.1 mph SE13.0 kmh SE 11.4 mph18.3 kmh 29.96 in1014.6 mb 0.00 in0.0 mm 0.00 in/hr0.0 mm/hr 0.00 in0.0 mm
08:25 PM 66.0°F18.9°C 47.4°F8.6°C 51% 10.0 mph SE16.1 kmh SE 17.4 mph28.0 kmh 29.96 in1014.6 mb 0.00 in0.0 mm 0.00 in/hr0.0 mm/hr 0.00 in0.0 mm
08:30 PM 65.8°F18.8°C 47.7°F8.7°C 52% 10.2 mph SE16.4 kmh SE 17.4 mph28.0 kmh 29.97 in1014.9 mb 0.00 in0.0 mm 0.00 in/hr0.0 mm/hr 0.00 in0.0 mm
08:35 PM 65.7°F18.7°C 47.6°F8.7°C 52% 8.5 mph SE13.7 kmh SE 10.7 mph17.2 kmh 29.96 in1014.6 mb 0.00 in0.0 mm 0.00 in/hr0.0 mm/hr 0.00 in0.0 mm
08:40 PM 65.5°F18.6°C 46.9°F8.3°C 51% 9.9 mph SE15.9 kmh SE 13.6 mph21.9 kmh 29.97 in1014.9 mb 0.00 in0.0 mm 0.00 in/hr0.0 mm/hr 0.00 in0.0 mm
08:45 PM 65.3°F18.5°C 46.7°F8.2°C 51% 10.5 mph ESE16.9 kmh ESE 14.5 mph23.3 kmh 29.97 in1014.9 mb 0.00 in0.0 mm 0.00 in/hr0.0 mm/hr 0.00 in0.0 mm
08:50 PM 65.1°F18.4°C 46.6°F8.1°C 51% 9.6 mph ESE15.4 kmh ESE 14.5 mph23.3 kmh 29.98 in1015.2 mb 0.00 in0.0 mm 0.00 in/hr0.0 mm/hr 0.00 in0.0 mm
08:55 PM 64.9°F18.3°C 46.9°F8.3°C 52% 8.9 mph SE14.3 kmh SE 13.0 mph20.9 kmh 29.97 in1014.9 mb 0.00 in0.0 mm 0.00 in/hr0.0 mm/hr 0.00 in0.0 mm
09:05 PM 64.9°F18.3°C 46.9°F8.3°C 52% 9.1 mph SE14.6 kmh SE 13.0 mph20.9 kmh 29.97 in1014.9 mb 0.00 in0.0 mm 0.00 in/hr0.0 mm/hr 0.00 in0.0 mm
09:10 PM 64.8°F18.2°C 46.7°F8.2°C 52% 9.3 mph SE15.0 kmh SE 14.5 mph23.3 kmh 29.98 in1015.2 mb 0.00 in0.0 mm 0.00 in/hr0.0 mm/hr 0.00 in0.0 mm
09:15 PM 64.6°F18.1°C 46.6°F8.1°C 52% 9.9 mph SE15.9 kmh SE 14.5 mph23.3 kmh 29.98 in1015.2 mb 0.00 in0.0 mm 0.00 in/hr0.0 mm/hr 0.00 in0.0 mm
09:20 PM 64.4°F18.0°C 46.9°F8.3°C 53% 10.2 mph SE16.4 kmh SE 13.6 mph21.9 kmh 29.98 in1015.2 mb 0.00 in0.0 mm 0.00 in/hr0.0 mm/hr 0.00 in0.0 mm
09:25 PM 64.4°F18.0°C 46.9°F8.3°C 53% 9.9 mph SE15.9 kmh SE 13.6 mph21.9 kmh 29.98 in1015.2 mb 0.00 in0.0 mm 0.00 in/hr0.0 mm/hr 0.00 in0.0 mm
09:30 PM 64.2°F17.9°C 46.7°F8.2°C 53% 7.4 mph SE11.9 kmh SE 13.6 mph21.9 kmh 29.98 in1015.2 mb 0.00 in0.0 mm 0.00 in/hr0.0 mm/hr 0.00 in0.0 mm
09:35 PM 63.9°F17.7°C 46.9°F8.3°C 54% 6.6 mph ESE10.6 kmh ESE 10.7 mph17.2 kmh 29.98 in1015.2 mb 0.00 in0.0 mm 0.00 in/hr0.0 mm/hr 0.00 in0.0 mm
09:45 PM 63.1°F17.3°C 46.2°F7.9°C 54% 9.1 mph ESE14.6 kmh ESE 14.5 mph23.3 kmh 29.98 in1015.2 mb 0.00 in0.0 mm 0.00 in/hr0.0 mm/hr 0.00 in0.0 mm
09:50 PM 63.1°F17.3°C 46.7°F8.2°C 55% 7.7 mph ESE12.4 kmh ESE 9.8 mph15.8 kmh 29.98 in1015.2 mb 0.00 in0.0 mm 0.00 in/hr0.0 mm/hr 0.00 in0.0 mm
09:55 PM 63.0°F17.2°C 46.6°F8.1°C 55% 7.7 mph ESE12.4 kmh ESE 10.7 mph17.2 kmh 29.98 in1015.2 mb 0.00 in0.0 mm 0.00 in/hr0.0 mm/hr 0.00 in0.0 mm
10:00 PM 62.8°F17.1°C 46.4°F8.0°C 55% 7.7 mph E12.4 kmh E 10.7 mph17.2 kmh 29.98 in1015.2 mb 0.00 in0.0 mm 0.00 in/hr0.0 mm/hr 0.00 in0.0 mm
10:05 PM 62.6°F17.0°C 46.2°F7.9°C 55% 7.3 mph E11.7 kmh E 9.8 mph15.8 kmh 29.98 in1015.2 mb 0.00 in0.0 mm 0.00 in/hr0.0 mm/hr 0.00 in0.0 mm
10:10 PM 62.4°F16.9°C 46.5°F8.1°C 56% 8.4 mph E13.5 kmh E 13.6 mph21.9 kmh 29.98 in1015.2 mb 0.00 in0.0 mm 0.00 in/hr0.0 mm/hr 0.00 in0.0 mm
10:15 PM 62.2°F16.8°C 46.4°F8.0°C 56% 9.0 mph E14.5 kmh E 13.6 mph21.9 kmh 29.98 in1015.2 mb 0.00 in0.0 mm 0.00 in/hr0.0 mm/hr 0.00 in0.0 mm
10:20 PM 62.2°F16.8°C 46.4°F8.0°C 56% 8.3 mph ESE13.4 kmh ESE 13.0 mph20.9 kmh 29.98 in1015.2 mb 0.00 in0.0 mm 0.00 in/hr0.0 mm/hr 0.00 in0.0 mm
10:25 PM 62.1°F16.7°C 46.2°F7.9°C 56% 8.8 mph ESE14.2 kmh ESE 13.0 mph20.9 kmh 29.98 in1015.2 mb 0.00 in0.0 mm 0.00 in/hr0.0 mm/hr 0.00 in0.0 mm
10:30 PM 61.9°F16.6°C 46.0°F7.8°C 56% 9.7 mph ESE15.6 kmh ESE 13.0 mph20.9 kmh 29.98 in1015.2 mb 0.00 in0.0 mm 0.00 in/hr0.0 mm/hr 0.00 in0.0 mm
10:35 PM 61.9°F16.6°C 46.0°F7.8°C 56% 9.0 mph ESE14.5 kmh ESE 13.0 mph20.9 kmh 29.98 in1015.2 mb 0.00 in0.0 mm 0.00 in/hr0.0 mm/hr 0.00 in0.0 mm
10:40 PM 61.7°F16.5°C 45.9°F7.7°C 56% 8.2 mph ESE13.2 kmh ESE 11.4 mph18.3 kmh 29.98 in1015.2 mb 0.00 in0.0 mm 0.00 in/hr0.0 mm/hr 0.00 in0.0 mm
10:45 PM 61.5°F16.4°C 45.7°F7.6°C 56% 9.0 mph SE14.5 kmh SE 11.4 mph18.3 kmh 29.98 in1015.2 mb 0.00 in0.0 mm 0.00 in/hr0.0 mm/hr 0.00 in0.0 mm
10:50 PM 61.5°F16.4°C 45.7°F7.6°C 56% 9.0 mph SE14.5 kmh SE 11.4 mph18.3 kmh 29.98 in1015.2 mb 0.00 in0.0 mm 0.00 in/hr0.0 mm/hr 0.00 in0.0 mm
10:55 PM 61.5°F16.4°C 45.7°F7.6°C 56% 7.8 mph ESE12.6 kmh ESE 11.4 mph18.3 kmh 29.98 in1015.2 mb 0.00 in0.0 mm 0.00 in/hr0.0 mm/hr 0.00 in0.0 mm
11:00 PM 61.3°F16.3°C 45.5°F7.5°C 56% 7.8 mph SE12.6 kmh SE 10.7 mph17.2 kmh 29.98 in1015.2 mb 0.00 in0.0 mm 0.00 in/hr0.0 mm/hr 0.00 in0.0 mm
11:05 PM 61.2°F16.2°C 45.4°F7.4°C 56% 7.4 mph SE11.9 kmh SE 9.2 mph14.8 kmh 29.98 in1015.2 mb 0.00 in0.0 mm 0.00 in/hr0.0 mm/hr 0.00 in0.0 mm
11:15 PM 61.0°F16.1°C 45.2°F7.3°C 56% 6.8 mph SE10.9 kmh SE 11.4 mph18.3 kmh 29.98 in1015.2 mb 0.00 in0.0 mm 0.00 in/hr0.0 mm/hr 0.00 in0.0 mm
11:20 PM 60.8°F16.0°C 45.0°F7.2°C 56% 5.9 mph SE9.5 kmh SE 11.4 mph18.3 kmh 29.99 in1015.6 mb 0.00 in0.0 mm 0.00 in/hr0.0 mm/hr 0.00 in0.0 mm
11:25 PM 60.8°F16.0°C 45.5°F7.5°C 57% 4.9 mph E7.9 kmh E 7.6 mph12.2 kmh 29.99 in1015.6 mb 0.00 in0.0 mm 0.00 in/hr0.0 mm/hr 0.00 in0.0 mm
11:30 PM 60.4°F15.8°C 45.1°F7.3°C 57% 6.2 mph E10.0 kmh E 10.7 mph17.2 kmh 29.98 in1015.2 mb 0.00 in0.0 mm 0.00 in/hr0.0 mm/hr 0.00 in0.0 mm
11:40 PM 60.3°F15.7°C 45.0°F7.2°C 57% 5.9 mph E9.5 kmh E 9.8 mph15.8 kmh 29.99 in1015.6 mb 0.00 in0.0 mm 0.00 in/hr0.0 mm/hr 0.00 in0.0 mm
11:45 PM 60.1°F15.6°C 44.8°F7.1°C 57% 5.4 mph E8.7 kmh E 9.8 mph15.8 kmh 29.99 in1015.6 mb 0.00 in0.0 mm 0.00 in/hr0.0 mm/hr 0.00 in0.0 mm
11:50 PM 60.1°F15.6°C 44.8°F7.1°C 57% 6.5 mph E10.5 kmh E 9.8 mph15.8 kmh 29.98 in1015.2 mb 0.00 in0.0 mm 0.00 in/hr0.0 mm/hr 0.00 in0.0 mm
11:55 PM 59.9°F15.5°C 44.6°F7.0°C 57% 7.3 mph ESE11.7 kmh ESE 11.4 mph18.3 kmh 29.98 in1015.2 mb 0.00 in0.0 mm 0.00 in/hr0.0 mm/hr 0.00 in0.0 mm